createdAt,value
2023-02-27T00:01:27.735Z,100.00
2023-02-27T00:04:06.531Z,100.00
2023-02-27T00:06:45.558Z,100.00
2023-02-27T00:09:31.057Z,100.00
2023-02-27T00:12:03.933Z,100.00
2023-02-27T00:14:54.106Z,100.00
2023-02-27T00:17:36.680Z,100.00
2023-02-27T00:20:18.312Z,100.00
2023-02-27T00:22:59.446Z,100.00
2023-02-27T00:25:36.340Z,100.00
2023-02-27T00:28:12.923Z,100.00
2023-02-27T00:31:00.737Z,100.00
2023-02-27T00:33:43.708Z,100.00
2023-02-27T00:36:23.548Z,100.00
2023-02-27T00:39:02.764Z,100.00
2023-02-27T00:41:37.448Z,100.00
2023-02-27T00:44:19.258Z,100.00
2023-02-27T00:47:07.321Z,100.00
2023-02-27T00:49:56.316Z,100.00
2023-02-27T00:52:33.870Z,100.00
2023-02-27T00:55:13.313Z,100.00
2023-02-27T00:57:54.660Z,100.00
2023-02-27T01:00:33.471Z,100.00
2023-02-27T01:06:05.435Z,100.00
2023-02-27T01:08:42.904Z,100.00
2023-02-27T01:11:39.361Z,100.00
2023-02-27T01:14:12.470Z,100.00
2023-02-27T01:16:47.143Z,100.00
2023-02-27T01:19:24.108Z,100.00
2023-02-27T01:22:02.355Z,100.00
2023-02-27T01:24:37.808Z,100.00
2023-02-27T01:27:15.215Z,100.00
2023-02-27T01:29:51.188Z,100.00
2023-02-27T01:32:29.296Z,100.00
2023-02-27T01:35:18.695Z,100.00
2023-02-27T01:37:53.916Z,100.00
2023-02-27T01:40:29.392Z,100.00
2023-02-27T01:43:04.000Z,100.00
2023-02-27T01:45:39.350Z,100.00
2023-02-27T01:48:21.367Z,100.00
2023-02-27T01:51:12.010Z,100.00
2023-02-27T01:53:50.469Z,100.00
2023-02-27T01:56:25.781Z,100.00
2023-02-27T01:59:08.637Z,100.00
2023-02-27T02:01:55.126Z,100.00
2023-02-27T02:04:35.454Z,100.00
2023-02-27T02:07:17.248Z,100.00
2023-02-27T02:09:55.601Z,100.00
2023-02-27T02:12:43.481Z,100.00
2023-02-27T02:15:25.623Z,100.00
2023-02-27T02:18:15.000Z,100.00
2023-02-27T02:21:35.969Z,100.00
2023-02-27T02:24:51.337Z,100.00
2023-02-27T02:27:48.994Z,100.00
2023-02-27T02:31:24.616Z,100.00
2023-02-27T02:34:51.925Z,100.00
2023-02-27T02:38:02.849Z,100.00
2023-02-27T02:40:45.045Z,100.00
2023-02-27T02:43:26.072Z,100.00
2023-02-27T02:46:13.534Z,100.00
2023-02-27T02:48:59.716Z,100.00
2023-02-27T02:51:48.650Z,100.00
2023-02-27T02:54:46.102Z,100.00
2023-02-27T02:57:33.896Z,100.00
2023-02-27T03:00:33.668Z,100.00
2023-02-27T03:03:21.835Z,100.00
2023-02-27T03:06:06.439Z,100.00
2023-02-27T03:08:50.314Z,100.00
2023-02-27T03:11:41.153Z,100.00
2023-02-27T03:14:33.365Z,100.00
2023-02-27T03:17:19.441Z,100.00
2023-02-27T03:20:12.428Z,100.00
2023-02-27T03:22:54.709Z,100.00
2023-02-27T03:25:32.966Z,100.00
2023-02-27T03:28:27.327Z,100.00
2023-02-27T03:31:30.323Z,100.00
2023-02-27T03:34:20.939Z,100.00
2023-02-27T03:37:10.934Z,100.00
2023-02-27T03:40:06.678Z,100.00
2023-02-27T03:42:55.561Z,100.00
2023-02-27T03:46:02.305Z,100.00
2023-02-27T03:49:03.380Z,100.00
2023-02-27T03:51:42.575Z,100.00
2023-02-27T03:54:19.420Z,100.00
2023-02-27T03:56:58.686Z,100.00
2023-02-27T03:59:52.554Z,100.00
2023-02-27T04:02:27.872Z,100.00
2023-02-27T04:05:11.631Z,100.00
2023-02-27T04:08:39.818Z,100.00
2023-02-27T04:11:44.904Z,100.00
2023-02-27T04:14:36.275Z,100.00
2023-02-27T04:17:29.361Z,100.00
2023-02-27T04:20:46.672Z,100.00
2023-02-27T04:23:27.589Z,100.00
2023-02-27T04:26:06.825Z,100.00
2023-02-27T04:28:48.903Z,100.00
2023-02-27T04:31:41.282Z,100.00
2023-02-27T04:34:31.350Z,100.00
2023-02-27T04:37:18.252Z,100.00
2023-02-27T04:40:09.537Z,100.00
2023-02-27T04:42:57.236Z,100.00
2023-02-27T04:45:46.053Z,100.00
2023-02-27T04:48:32.170Z,100.00
2023-02-27T04:51:26.373Z,100.00
2023-02-27T04:54:09.109Z,100.00
2023-02-27T04:57:09.338Z,100.00
2023-02-27T04:59:52.250Z,100.00
2023-02-27T05:02:39.718Z,100.00
2023-02-27T05:05:17.861Z,100.00
2023-02-27T05:08:10.751Z,100.00
2023-02-27T05:10:57.659Z,100.00
2023-02-27T05:13:44.394Z,100.00
2023-02-27T05:16:28.897Z,100.00
2023-02-27T05:19:11.482Z,100.00
2023-02-27T05:22:04.754Z,100.00
2023-02-27T05:24:58.444Z,100.00
2023-02-27T05:27:44.203Z,100.00
2023-02-27T05:30:54.162Z,100.00
2023-02-27T05:33:40.153Z,100.00
2023-02-27T05:36:20.523Z,100.00
2023-02-27T05:39:00.684Z,100.00
2023-02-27T05:41:43.642Z,100.00
2023-02-27T05:44:24.035Z,100.00
2023-02-27T05:47:22.423Z,100.00
2023-02-27T05:50:28.213Z,100.00
2023-02-27T05:53:13.375Z,100.00
2023-02-27T05:55:57.195Z,100.00
2023-02-27T05:58:36.691Z,100.00
2023-02-27T06:01:12.639Z,100.00
2023-02-27T06:03:58.133Z,100.00
2023-02-27T06:06:40.878Z,100.00
2023-02-27T06:09:23.704Z,100.00
2023-02-27T06:12:00.613Z,100.00
2023-02-27T06:14:35.926Z,100.00
2023-02-27T06:17:06.652Z,100.00
2023-02-27T06:19:46.154Z,100.00
2023-02-27T06:22:25.352Z,100.00
2023-02-27T06:25:03.342Z,100.00
2023-02-27T06:27:39.134Z,100.00
2023-02-27T06:30:25.816Z,100.00
2023-02-27T06:33:04.147Z,100.00
2023-02-27T06:35:44.810Z,100.00
2023-02-27T06:38:20.781Z,100.00
2023-02-27T06:40:56.288Z,100.00
2023-02-27T06:43:36.676Z,100.00
2023-02-27T06:46:13.840Z,100.00
2023-02-27T06:48:48.787Z,100.00
2023-02-27T06:51:35.907Z,100.00
2023-02-27T06:54:20.932Z,100.00
2023-02-27T06:57:01.252Z,100.00
2023-02-27T06:59:43.531Z,100.00
2023-02-27T07:02:20.345Z,100.00
2023-02-27T07:04:55.955Z,99.08
2023-02-27T07:07:43.919Z,99.86
2023-02-27T07:10:27.590Z,99.57
2023-02-27T07:13:03.623Z,98.71
2023-02-27T07:15:50.981Z,99.04
2023-02-27T07:18:33.128Z,99.42
2023-02-27T07:21:14.570Z,99.29
2023-02-27T07:23:51.510Z,100.00
2023-02-27T07:26:31.123Z,99.05
2023-02-27T07:29:09.963Z,97.94
2023-02-27T07:31:44.577Z,97.48
2023-02-27T07:34:32.221Z,98.88
2023-02-27T07:37:11.936Z,98.42
2023-02-27T07:40:08.237Z,97.68
2023-02-27T07:42:40.640Z,98.12
2023-02-27T07:45:19.216Z,96.68
2023-02-27T07:48:04.061Z,96.70
2023-02-27T07:50:48.465Z,97.92
2023-02-27T07:53:19.425Z,97.55
2023-02-27T07:56:15.104Z,96.91
2023-02-27T07:58:47.261Z,96.93
2023-02-27T08:01:26.636Z,96.23
2023-02-27T08:04:03.321Z,96.03
2023-02-27T08:06:41.430Z,95.08
2023-02-27T08:09:21.147Z,94.54
2023-02-27T08:12:00.815Z,94.75
2023-02-27T08:14:42.284Z,94.16
2023-02-27T08:17:15.271Z,93.62
2023-02-27T08:19:46.888Z,94.04
2023-02-27T08:22:25.020Z,94.18
2023-02-27T08:25:03.575Z,94.34
2023-02-27T08:27:53.006Z,93.53
2023-02-27T08:30:23.503Z,94.50
2023-02-27T08:33:04.855Z,92.60
2023-02-27T08:35:39.833Z,94.27
2023-02-27T08:38:18.112Z,93.12
2023-02-27T08:40:59.024Z,91.69
2023-02-27T08:43:42.654Z,92.45
2023-02-27T08:46:14.689Z,91.98
2023-02-27T08:48:57.885Z,90.98
2023-02-27T08:51:37.436Z,89.79
2023-02-27T08:54:09.304Z,89.76
2023-02-27T08:56:40.028Z,92.30
2023-02-27T08:59:25.173Z,93.98
2023-02-27T09:02:08.919Z,93.01
2023-02-27T09:04:44.963Z,89.51
2023-02-27T09:07:26.538Z,86.77
2023-02-27T09:10:00.693Z,84.33
2023-02-27T09:12:45.333Z,86.95
2023-02-27T09:15:30.420Z,82.79
2023-02-27T09:18:18.224Z,82.43
2023-02-27T09:21:03.697Z,82.41
2023-02-27T09:23:36.076Z,81.46
2023-02-27T09:26:32.115Z,81.73
2023-02-27T09:29:23.669Z,82.22
2023-02-27T09:32:01.633Z,82.25
2023-02-27T09:34:38.381Z,81.50
2023-02-27T09:37:15.152Z,79.59
2023-02-27T09:39:57.008Z,79.72
2023-02-27T09:42:35.880Z,81.84
2023-02-27T09:45:20.062Z,79.20
2023-02-27T09:48:07.332Z,81.70
2023-02-27T09:50:46.987Z,78.86
2023-02-27T09:53:36.779Z,78.74
2023-02-27T09:56:30.811Z,81.65
2023-02-27T09:59:40.093Z,80.38
2023-02-27T10:02:40.777Z,79.90
2023-02-27T10:05:50.966Z,80.73
2023-02-27T10:08:44.072Z,78.09
2023-02-27T10:11:30.220Z,79.25
2023-02-27T10:14:14.572Z,75.07
2023-02-27T10:17:00.108Z,76.02
2023-02-27T10:19:40.855Z,76.70
2023-02-27T10:22:27.383Z,74.27
2023-02-27T10:25:31.571Z,77.16
2023-02-27T10:28:18.449Z,78.51
2023-02-27T10:31:01.782Z,73.83
2023-02-27T10:33:45.001Z,75.69
2023-02-27T10:36:33.070Z,75.32
2023-02-27T10:39:28.186Z,77.01
2023-02-27T10:42:11.751Z,76.45
2023-02-27T10:44:50.595Z,76.72
2023-02-27T10:47:37.384Z,75.17
2023-02-27T10:50:24.397Z,74.46
2023-02-27T10:53:03.539Z,76.93
2023-02-27T10:55:45.164Z,75.55
2023-02-27T10:58:25.871Z,72.52
2023-02-27T11:01:02.223Z,73.49
2023-02-27T11:03:41.498Z,75.33
2023-02-27T11:06:33.364Z,74.50
2023-02-27T11:09:27.876Z,73.15
2023-02-27T11:12:27.737Z,74.05
2023-02-27T11:15:28.834Z,75.37
2023-02-27T11:18:33.857Z,74.11
2023-02-27T11:21:24.888Z,75.36
2023-02-27T11:24:11.536Z,75.47
2023-02-27T11:27:00.784Z,73.51
2023-02-27T11:30:11.124Z,74.54
2023-02-27T11:32:59.139Z,74.46
2023-02-27T11:35:40.717Z,74.43
2023-02-27T11:38:25.852Z,73.39
2023-02-27T11:41:03.325Z,73.89
2023-02-27T11:43:52.256Z,74.64
2023-02-27T11:46:47.090Z,75.41
2023-02-27T11:49:40.213Z,73.66
2023-02-27T11:52:23.244Z,73.61
2023-02-27T11:55:10.115Z,74.71
2023-02-27T11:57:51.886Z,75.13
2023-02-27T12:00:38.725Z,73.44
2023-02-27T12:03:31.438Z,75.11
2023-02-27T12:06:15.401Z,76.25
2023-02-27T12:09:01.444Z,77.72
2023-02-27T12:11:42.826Z,78.22
2023-02-27T12:17:23.602Z,74.57
2023-02-27T12:20:29.899Z,74.10
2023-02-27T12:23:19.127Z,75.03
2023-02-27T12:26:04.455Z,75.88
2023-02-27T12:28:54.145Z,77.09
2023-02-27T12:31:45.375Z,72.64
2023-02-27T12:34:45.594Z,74.80
2023-02-27T12:37:31.600Z,72.40
2023-02-27T12:40:12.297Z,74.83
2023-02-27T12:46:40.977Z,74.73
2023-02-27T12:49:48.783Z,75.91
2023-02-27T12:52:52.504Z,70.93
2023-02-27T12:55:32.956Z,72.08
2023-02-27T12:59:00.948Z,74.38
2023-02-27T13:01:45.147Z,75.13
2023-02-27T13:04:27.724Z,74.88
2023-02-27T13:07:07.581Z,74.74
2023-02-27T13:10:03.082Z,72.95
2023-02-27T13:12:53.990Z,73.62
2023-02-27T13:15:37.544Z,72.70
2023-02-27T13:18:27.262Z,74.16
2023-02-27T13:21:11.402Z,74.25
2023-02-27T13:23:55.965Z,73.94
2023-02-27T13:26:41.507Z,73.23
2023-02-27T13:29:20.966Z,73.42
2023-02-27T13:32:04.172Z,71.95
2023-02-27T13:34:42.380Z,75.44
2023-02-27T13:37:14.058Z,73.79
2023-02-27T13:40:03.070Z,74.23
2023-02-27T13:43:02.607Z,72.69
2023-02-27T13:45:59.705Z,72.67
2023-02-27T13:48:55.637Z,73.45
2023-02-27T13:52:02.307Z,73.11
2023-02-27T13:54:44.478Z,72.82
2023-02-27T13:57:38.391Z,73.86
2023-02-27T14:00:32.833Z,75.06
2023-02-27T14:03:14.071Z,73.61
2023-02-27T14:05:49.612Z,73.57
2023-02-27T14:08:29.908Z,74.43
2023-02-27T14:11:10.154Z,73.53
2023-02-27T14:14:05.046Z,73.60
2023-02-27T14:17:12.770Z,75.38
2023-02-27T14:20:06.743Z,75.98
2023-02-27T14:23:20.682Z,76.03
2023-02-27T14:25:59.083Z,73.67
2023-02-27T14:28:38.129Z,73.86
2023-02-27T14:31:23.077Z,74.09
2023-02-27T14:34:11.655Z,73.67
2023-02-27T14:36:52.190Z,72.53
2023-02-27T14:39:37.615Z,74.18
2023-02-27T14:42:48.460Z,78.36
2023-02-27T14:45:28.072Z,77.04
2023-02-27T14:48:02.590Z,76.08
2023-02-27T14:50:41.806Z,76.59
2023-02-27T14:53:27.090Z,76.96
2023-02-27T14:56:05.394Z,76.21
2023-02-27T14:59:02.241Z,76.83
2023-02-27T15:01:43.103Z,75.26
2023-02-27T15:04:29.620Z,75.04
2023-02-27T15:07:07.596Z,75.21
2023-02-27T15:09:51.684Z,75.66
2023-02-27T15:12:25.628Z,74.99
2023-02-27T15:15:12.857Z,74.52
2023-02-27T15:17:51.682Z,74.53
2023-02-27T15:20:39.980Z,76.46
2023-02-27T15:23:35.971Z,76.94
2023-02-27T15:26:14.821Z,76.64
2023-02-27T15:28:53.893Z,76.21
2023-02-27T15:31:39.255Z,76.65
2023-02-27T15:34:20.466Z,75.92
2023-02-27T15:36:53.998Z,76.36
2023-02-27T15:39:33.956Z,76.23
2023-02-27T15:42:12.948Z,76.70
2023-02-27T15:44:50.057Z,77.11
2023-02-27T15:47:28.589Z,76.79
2023-02-27T15:50:12.708Z,77.00
2023-02-27T15:52:55.447Z,77.58
2023-02-27T15:55:39.100Z,77.46
2023-02-27T15:58:53.416Z,76.69
2023-02-27T16:01:31.945Z,77.16
2023-02-27T16:04:12.089Z,77.76
2023-02-27T16:06:54.560Z,78.42
2023-02-27T16:09:37.259Z,78.44
2023-02-27T16:12:34.619Z,78.34
2023-02-27T16:15:31.112Z,78.55
2023-02-27T16:18:10.559Z,78.65
2023-02-27T16:21:02.993Z,78.93
2023-02-27T16:23:39.739Z,78.39
2023-02-27T16:26:39.666Z,78.80
2023-02-27T16:29:26.339Z,78.59
2023-02-27T16:34:56.938Z,78.61
2023-02-27T16:37:35.802Z,79.10
2023-02-27T16:40:24.547Z,79.26
2023-02-27T16:43:12.109Z,79.35
2023-02-27T16:46:07.746Z,79.80
2023-02-27T16:48:42.220Z,80.18
2023-02-27T16:51:21.899Z,80.26
2023-02-27T16:53:59.058Z,80.11
2023-02-27T16:56:38.611Z,80.28
2023-02-27T16:59:25.873Z,80.67
2023-02-27T17:02:11.822Z,81.03
2023-02-27T17:04:49.267Z,80.76
2023-02-27T17:07:24.602Z,80.83
2023-02-27T17:10:04.063Z,81.17
2023-02-27T17:12:45.037Z,81.25
2023-02-27T17:15:19.313Z,81.22
2023-02-27T17:17:54.596Z,81.40
2023-02-27T17:20:30.832Z,81.42
2023-02-27T17:23:08.674Z,81.44
2023-02-27T17:25:43.379Z,81.28
2023-02-27T17:28:24.409Z,81.66
2023-02-27T17:31:01.152Z,81.75
2023-02-27T17:33:40.488Z,82.15
2023-02-27T17:36:19.362Z,82.49
2023-02-27T17:38:57.515Z,82.67
2023-02-27T17:41:37.454Z,82.37
2023-02-27T17:44:15.295Z,82.21
2023-02-27T17:46:53.367Z,82.47
2023-02-27T17:49:34.275Z,82.40
2023-02-27T17:52:09.814Z,82.67
2023-02-27T17:54:56.972Z,82.44
2023-02-27T17:57:28.781Z,82.50
2023-02-27T18:00:04.101Z,82.89
2023-02-27T18:02:48.662Z,82.28
2023-02-27T18:05:39.777Z,82.66
2023-02-27T18:08:16.782Z,82.41
2023-02-27T18:10:54.635Z,82.42
2023-02-27T18:13:36.011Z,82.56
2023-02-27T18:16:15.783Z,82.84
2023-02-27T18:18:53.412Z,82.71
2023-02-27T18:21:35.975Z,82.71
2023-02-27T18:24:29.956Z,82.90
2023-02-27T18:27:03.764Z,82.89
2023-02-27T18:29:39.179Z,82.77
2023-02-27T18:32:25.559Z,82.66
2023-02-27T18:35:05.087Z,83.00
2023-02-27T18:40:32.632Z,83.40
2023-02-27T18:43:14.116Z,82.79
2023-02-27T18:45:53.014Z,82.58
2023-02-27T18:48:41.235Z,82.10
2023-02-27T18:51:26.787Z,82.25
2023-02-27T18:54:13.636Z,82.18
2023-02-27T18:56:54.931Z,82.04
2023-02-27T18:59:31.639Z,82.43
2023-02-27T19:02:02.924Z,82.71
2023-02-27T19:04:44.450Z,82.53
2023-02-27T19:07:17.083Z,82.51
2023-02-27T19:09:56.797Z,81.96
2023-02-27T19:12:30.570Z,81.79
2023-02-27T19:15:10.816Z,81.47
2023-02-27T19:17:50.725Z,81.07
2023-02-27T19:20:20.959Z,81.09
2023-02-27T19:22:51.093Z,81.06
2023-02-27T19:25:32.201Z,81.36
2023-02-27T19:28:10.435Z,81.02
2023-02-27T19:30:45.758Z,81.13
2023-02-27T19:33:17.034Z,81.35
2023-02-27T19:35:47.438Z,81.39
2023-02-27T19:38:28.820Z,81.11
2023-02-27T19:41:16.450Z,81.16
2023-02-27T19:43:57.461Z,81.29
2023-02-27T19:46:33.029Z,81.26
2023-02-27T19:49:12.288Z,81.69
2023-02-27T19:51:44.999Z,81.13
2023-02-27T19:54:19.664Z,80.96
2023-02-27T19:57:01.190Z,80.95
2023-02-27T19:59:43.818Z,80.81
2023-02-27T20:02:23.061Z,80.90
2023-02-27T20:04:56.377Z,80.94
2023-02-27T20:07:35.021Z,81.14
2023-02-27T20:10:09.120Z,81.41
2023-02-27T20:12:47.423Z,81.72
2023-02-27T20:15:24.354Z,82.29
2023-02-27T20:17:56.522Z,82.34
2023-02-27T20:20:32.766Z,83.13
2023-02-27T20:23:06.753Z,82.95
2023-02-27T20:25:39.409Z,82.61
2023-02-27T20:28:14.815Z,82.80
2023-02-27T20:30:45.046Z,82.99
2023-02-27T20:33:23.214Z,82.82
2023-02-27T20:35:57.276Z,83.03
2023-02-27T20:38:35.562Z,83.48
2023-02-27T20:41:29.968Z,84.15
2023-02-27T20:44:19.705Z,84.37
2023-02-27T20:46:56.867Z,85.24
2023-02-27T20:49:32.265Z,85.67
2023-02-27T20:52:13.961Z,86.00
2023-02-27T20:54:45.239Z,85.59
2023-02-27T20:57:24.356Z,85.16
2023-02-27T21:00:05.621Z,85.66
2023-02-27T21:02:41.364Z,85.74
2023-02-27T21:05:20.447Z,85.62
2023-02-27T21:07:56.696Z,85.52
2023-02-27T21:10:35.387Z,85.76
2023-02-27T21:13:11.309Z,85.60
2023-02-27T21:15:59.938Z,84.78
2023-02-27T21:18:39.686Z,84.52
2023-02-27T21:21:28.479Z,85.41
2023-02-27T21:24:09.261Z,85.41
2023-02-27T21:26:47.301Z,85.74
2023-02-27T21:29:27.198Z,85.61
2023-02-27T21:32:26.265Z,84.78
2023-02-27T21:35:08.616Z,84.70
2023-02-27T21:37:49.464Z,84.63
2023-02-27T21:40:25.229Z,84.45
2023-02-27T21:42:59.907Z,84.51
2023-02-27T21:45:38.786Z,84.04
2023-02-27T21:48:21.423Z,84.87
2023-02-27T21:51:14.032Z,84.06
2023-02-27T21:53:57.116Z,84.05
2023-02-27T21:56:39.286Z,83.71
2023-02-27T21:59:12.720Z,83.10
2023-02-27T22:01:53.600Z,83.14
2023-02-27T22:04:31.271Z,84.94
2023-02-27T22:07:12.375Z,85.13
2023-02-27T22:09:54.637Z,87.01
2023-02-27T22:12:28.844Z,86.50
2023-02-27T22:15:08.532Z,86.98
2023-02-27T22:17:51.731Z,86.66
2023-02-27T22:20:34.317Z,87.12
2023-02-27T22:23:17.478Z,87.12
2023-02-27T22:25:52.275Z,87.64
2023-02-27T22:28:28.063Z,87.40
2023-02-27T22:31:15.203Z,87.02
2023-02-27T22:33:50.248Z,87.75
2023-02-27T22:36:37.974Z,88.45
2023-02-27T22:39:14.265Z,87.90
2023-02-27T22:41:55.925Z,88.82
2023-02-27T22:44:33.672Z,87.89
2023-02-27T22:47:14.500Z,88.18
2023-02-27T22:49:57.942Z,88.29
2023-02-27T22:52:51.593Z,89.08
2023-02-27T22:55:27.395Z,87.57
2023-02-27T22:58:02.401Z,88.59
2023-02-27T23:00:48.504Z,88.92
2023-02-27T23:03:40.754Z,88.26
2023-02-27T23:06:19.134Z,88.23
2023-02-27T23:09:13.978Z,88.40
2023-02-27T23:11:46.085Z,87.31
2023-02-27T23:14:33.503Z,86.42
2023-02-27T23:17:07.515Z,86.19
2023-02-27T23:19:46.025Z,86.64
2023-02-27T23:22:23.401Z,85.95
2023-02-27T23:25:08.975Z,86.59
2023-02-27T23:27:47.749Z,86.59
2023-02-27T23:30:38.524Z,87.87
2023-02-27T23:33:16.715Z,88.25
2023-02-27T23:35:55.181Z,88.56
2023-02-27T23:38:35.220Z,89.54
2023-02-27T23:41:25.241Z,89.94
2023-02-27T23:44:03.166Z,89.88
2023-02-27T23:46:41.518Z,90.47
2023-02-27T23:49:18.610Z,91.44
2023-02-27T23:51:55.629Z,91.09
2023-02-27T23:57:20.918Z,92.39
2023-02-27T23:59:55.337Z,92.85
